Braidwood, Australia
Current Conditions -  °F | °C
As of 9:30 PM on Monday 26 Jan 2015 (Local Time) from YSCB Reporting Station
Overcast Overcast  
Wind Chill: 57°   Ceiling: 2300
Heat Index: 57°   Visibility: 6mi
Dew Point: 50°   Wind: 9mph
Humidity: 77%   Direction: 120°ESE
Pressure: 30"   Gusts: NA
Location:  35.44°S, 149.8°E
Report Text: YSCB 261030Z AUTO 12008KT 9999 // OVC023 14/10 Q1016
Loading
Personal Weather Stations






























Interactive Weather Map New forecast layout! Learn more

10-Day Weather Forecast

Advertisements
Track Severe Weather on mobile